sensor_id;sensor_type;location;lat;lon;timestamp;temperature;humidity
9450;DHT22;4763;48.370;10.874;2022-12-18T00:02:07;-4.60;99.90
9450;DHT22;4763;48.370;10.874;2022-12-18T00:04:34;-4.60;99.90
9450;DHT22;4763;48.370;10.874;2022-12-18T00:07:01;-4.70;99.90
9450;DHT22;4763;48.370;10.874;2022-12-18T00:09:28;-4.60;99.90
9450;DHT22;4763;48.370;10.874;2022-12-18T00:11:55;-4.60;99.90
9450;DHT22;4763;48.370;10.874;2022-12-18T00:14:21;-4.60;99.90
9450;DHT22;4763;48.370;10.874;2022-12-18T00:16:50;-4.50;99.90
9450;DHT22;4763;48.370;10.874;2022-12-18T00:19:16;-4.60;99.90
9450;DHT22;4763;48.370;10.874;2022-12-18T00:21:44;-4.50;99.90
9450;DHT22;4763;48.370;10.874;2022-12-18T00:24:11;-4.50;99.90
9450;DHT22;4763;48.370;10.874;2022-12-18T00:26:38;-4.50;99.90
9450;DHT22;4763;48.370;10.874;2022-12-18T00:29:08;-4.60;99.90
9450;DHT22;4763;48.370;10.874;2022-12-18T00:31:37;-4.50;99.90
9450;DHT22;4763;48.370;10.874;2022-12-18T00:34:05;-4.60;99.90
9450;DHT22;4763;48.370;10.874;2022-12-18T00:36:33;-4.50;99.90
9450;DHT22;4763;48.370;10.874;2022-12-18T00:39:03;-4.50;99.90
9450;DHT22;4763;48.370;10.874;2022-12-18T00:41:30;-4.50;99.90
9450;DHT22;4763;48.370;10.874;2022-12-18T00:44:16;-4.50;99.90
9450;DHT22;4763;48.370;10.874;2022-12-18T00:46:43;-4.50;99.90
9450;DHT22;4763;48.370;10.874;2022-12-18T00:49:12;-4.50;99.90
9450;DHT22;4763;48.370;10.874;2022-12-18T00:51:39;-4.50;99.90
9450;DHT22;4763;48.370;10.874;2022-12-18T00:54:05;-4.50;99.90
9450;DHT22;4763;48.370;10.874;2022-12-18T00:56:35;-4.50;99.90
9450;DHT22;4763;48.370;10.874;2022-12-18T00:59:02;-4.50;99.90
9450;DHT22;4763;48.370;10.874;2022-12-18T01:01:30;-4.50;99.90
9450;DHT22;4763;48.370;10.874;2022-12-18T01:03:58;-4.40;99.90
9450;DHT22;4763;48.370;10.874;2022-12-18T01:06:27;-4.50;99.90
9450;DHT22;4763;48.370;10.874;2022-12-18T01:08:54;-4.50;99.90
9450;DHT22;4763;48.370;10.874;2022-12-18T01:11:21;-4.40;99.90
9450;DHT22;4763;48.370;10.874;2022-12-18T01:13:48;-4.50;99.90
9450;DHT22;4763;48.370;10.874;2022-12-18T01:16:16;-4.50;99.90
9450;DHT22;4763;48.370;10.874;2022-12-18T01:18:43;-4.50;99.90
9450;DHT22;4763;48.370;10.874;2022-12-18T01:21:12;-4.50;99.90
9450;DHT22;4763;48.370;10.874;2022-12-18T01:23:43;-4.50;99.90
9450;DHT22;4763;48.370;10.874;2022-12-18T01:26:13;-4.50;99.90
9450;DHT22;4763;48.370;10.874;2022-12-18T01:28:40;-4.50;99.90
9450;DHT22;4763;48.370;10.874;2022-12-18T01:31:15;-4.50;99.90
9450;DHT22;4763;48.370;10.874;2022-12-18T01:33:43;-4.60;99.90
9450;DHT22;4763;48.370;10.874;2022-12-18T01:36:18;-4.60;99.90
9450;DHT22;4763;48.370;10.874;2022-12-18T01:38:47;-4.60;99.90
9450;DHT22;4763;48.370;10.874;2022-12-18T01:41:15;-4.50;99.90
9450;DHT22;4763;48.370;10.874;2022-12-18T01:43:49;-4.60;99.90
9450;DHT22;4763;48.370;10.874;2022-12-18T01:46:18;-4.60;99.90
9450;DHT22;4763;48.370;10.874;2022-12-18T01:48:47;-4.60;99.90
9450;DHT22;4763;48.370;10.874;2022-12-18T01:51:15;-4.70;99.90
9450;DHT22;4763;48.370;10.874;2022-12-18T01:53:44;-4.80;99.90
9450;DHT22;4763;48.370;10.874;2022-12-18T01:56:18;-4.70;99.90
9450;DHT22;4763;48.370;10.874;2022-12-18T01:58:51;-4.70;99.90
9450;DHT22;4763;48.370;10.874;2022-12-18T02:01:20;-4.80;99.90
9450;DHT22;4763;48.370;10.874;2022-12-18T02:03:48;-4.80;99.90
9450;DHT22;4763;48.370;10.874;2022-12-18T02:06:16;-4.80;99.90
9450;DHT22;4763;48.370;10.874;2022-12-18T02:08:52;-4.80;99.90
9450;DHT22;4763;48.370;10.874;2022-12-18T02:11:30;-4.80;99.90
9450;DHT22;4763;48.370;10.874;2022-12-18T02:14:04;-4.90;99.90
9450;DHT22;4763;48.370;10.874;2022-12-18T02:16:39;-5.10;99.90
9450;DHT22;4763;48.370;10.874;2022-12-18T02:19:22;-5.10;99.90
9450;DHT22;4763;48.370;10.874;2022-12-18T02:22:00;-5.10;99.90
9450;DHT22;4763;48.370;10.874;2022-12-18T02:24:35;-5.00;99.90
9450;DHT22;4763;48.370;10.874;2022-12-18T02:27:06;-5.00;99.90
9450;DHT22;4763;48.370;10.874;2022-12-18T02:29:37;-5.00;99.90
9450;DHT22;4763;48.370;10.874;2022-12-18T02:32:09;-5.10;99.90
9450;DHT22;4763;48.370;10.874;2022-12-18T02:34:39;-5.00;99.90
9450;DHT22;4763;48.370;10.874;2022-12-18T02:37:09;-5.10;99.90
9450;DHT22;4763;48.370;10.874;2022-12-18T02:39:39;-5.00;99.90
9450;DHT22;4763;48.370;10.874;2022-12-18T02:42:08;-5.00;99.90
9450;DHT22;4763;48.370;10.874;2022-12-18T02:44:43;-5.00;99.90
9450;DHT22;4763;48.370;10.874;2022-12-18T02:47:11;-5.00;99.90
9450;DHT22;4763;48.370;10.874;2022-12-18T02:49:44;-5.00;99.90
9450;DHT22;4763;48.370;10.874;2022-12-18T02:52:20;-5.00;99.90
9450;DHT22;4763;48.370;10.874;2022-12-18T02:55:08;-4.90;99.90
9450;DHT22;4763;48.370;10.874;2022-12-18T02:57:45;-5.00;99.90
9450;DHT22;4763;48.370;10.874;2022-12-18T03:00:16;-5.10;99.90
9450;DHT22;4763;48.370;10.874;2022-12-18T03:02:48;-5.10;99.90
9450;DHT22;4763;48.370;10.874;2022-12-18T03:05:20;-5.00;99.90
9450;DHT22;4763;48.370;10.874;2022-12-18T03:07:53;-5.10;99.90
9450;DHT22;4763;48.370;10.874;2022-12-18T03:10:26;-5.00;99.90
9450;DHT22;4763;48.370;10.874;2022-12-18T03:12:59;-5.00;99.90
9450;DHT22;4763;48.370;10.874;2022-12-18T03:15:32;-5.00;99.90
9450;DHT22;4763;48.370;10.874;2022-12-18T03:18:04;-5.00;99.90
9450;DHT22;4763;48.370;10.874;2022-12-18T03:20:34;-5.00;99.90
9450;DHT22;4763;48.370;10.874;2022-12-18T03:23:07;-5.10;99.90
9450;DHT22;4763;48.370;10.874;2022-12-18T03:25:38;-5.10;99.90
9450;DHT22;4763;48.370;10.874;2022-12-18T03:28:11;-5.00;99.90
9450;DHT22;4763;48.370;10.874;2022-12-18T03:30:40;-5.10;99.90
9450;DHT22;4763;48.370;10.874;2022-12-18T03:33:10;-5.00;99.90
9450;DHT22;4763;48.370;10.874;2022-12-18T03:35:41;-5.00;99.90
9450;DHT22;4763;48.370;10.874;2022-12-18T03:38:09;-5.00;99.90
9450;DHT22;4763;48.370;10.874;2022-12-18T03:40:44;-5.00;99.90
9450;DHT22;4763;48.370;10.874;2022-12-18T03:43:18;-5.10;99.90
9450;DHT22;4763;48.370;10.874;2022-12-18T03:45:52;-5.10;99.90
9450;DHT22;4763;48.370;10.874;2022-12-18T03:48:27;-5.10;99.90
9450;DHT22;4763;48.370;10.874;2022-12-18T03:50:57;-5.00;99.90
9450;DHT22;4763;48.370;10.874;2022-12-18T03:53:33;-5.00;99.90
9450;DHT22;4763;48.370;10.874;2022-12-18T03:56:04;-5.00;99.90
9450;DHT22;4763;48.370;10.874;2022-12-18T03:58:35;-5.00;99.90
9450;DHT22;4763;48.370;10.874;2022-12-18T04:01:09;-5.00;99.90
9450;DHT22;4763;48.370;10.874;2022-12-18T04:03:38;-4.90;99.90
9450;DHT22;4763;48.370;10.874;2022-12-18T04:06:06;-5.00;99.90
9450;DHT22;4763;48.370;10.874;2022-12-18T04:08:34;-5.00;99.90
9450;DHT22;4763;48.370;10.874;2022-12-18T04:11:01;-5.00;99.90
9450;DHT22;4763;48.370;10.874;2022-12-18T04:13:30;-4.90;99.90
9450;DHT22;4763;48.370;10.874;2022-12-18T04:16:00;-4.90;99.90
9450;DHT22;4763;48.370;10.874;2022-12-18T04:18:27;-4.90;99.90
9450;DHT22;4763;48.370;10.874;2022-12-18T04:20:53;-4.90;99.90
9450;DHT22;4763;48.370;10.874;2022-12-18T04:23:20;-4.90;99.90
9450;DHT22;4763;48.370;10.874;2022-12-18T04:25:47;-5.00;99.90
9450;DHT22;4763;48.370;10.874;2022-12-18T04:28:14;-4.90;99.90
9450;DHT22;4763;48.370;10.874;2022-12-18T04:30:41;-5.00;99.90
9450;DHT22;4763;48.370;10.874;2022-12-18T04:33:10;-5.00;99.90
9450;DHT22;4763;48.370;10.874;2022-12-18T04:35:37;-5.00;99.90
9450;DHT22;4763;48.370;10.874;2022-12-18T04:38:05;-5.00;99.90
9450;DHT22;4763;48.370;10.874;2022-12-18T04:40:32;-5.00;99.90
9450;DHT22;4763;48.370;10.874;2022-12-18T04:42:59;-5.00;99.90
9450;DHT22;4763;48.370;10.874;2022-12-18T04:45:26;-5.00;99.90
9450;DHT22;4763;48.370;10.874;2022-12-18T04:47:52;-5.00;99.90
9450;DHT22;4763;48.370;10.874;2022-12-18T04:50:21;-4.90;99.90
9450;DHT22;4763;48.370;10.874;2022-12-18T04:52:48;-4.90;99.90
9450;DHT22;4763;48.370;10.874;2022-12-18T04:55:15;-5.00;99.90
9450;DHT22;4763;48.370;10.874;2022-12-18T04:57:42;-5.00;99.90
9450;DHT22;4763;48.370;10.874;2022-12-18T05:00:10;-5.00;99.90
9450;DHT22;4763;48.370;10.874;2022-12-18T05:02:38;-4.90;99.90
9450;DHT22;4763;48.370;10.874;2022-12-18T05:05:06;-4.90;99.90
9450;DHT22;4763;48.370;10.874;2022-12-18T05:07:34;-4.90;99.90
9450;DHT22;4763;48.370;10.874;2022-12-18T05:10:01;-4.90;99.90
9450;DHT22;4763;48.370;10.874;2022-12-18T05:12:27;-4.90;99.90
9450;DHT22;4763;48.370;10.874;2022-12-18T05:14:54;-4.90;99.90
9450;DHT22;4763;48.370;10.874;2022-12-18T05:17:21;-4.90;99.90
9450;DHT22;4763;48.370;10.874;2022-12-18T05:19:48;-4.90;99.90
9450;DHT22;4763;48.370;10.874;2022-12-18T05:22:15;-4.90;99.90
9450;DHT22;4763;48.370;10.874;2022-12-18T05:24:43;-4.90;99.90
9450;DHT22;4763;48.370;10.874;2022-12-18T05:27:10;-4.90;99.90
9450;DHT22;4763;48.370;10.874;2022-12-18T05:29:37;-4.90;99.90
9450;DHT22;4763;48.370;10.874;2022-12-18T05:32:04;-4.90;99.90
9450;DHT22;4763;48.370;10.874;2022-12-18T05:34:31;-5.00;99.90
9450;DHT22;4763;48.370;10.874;2022-12-18T05:36:58;-5.00;99.90
9450;DHT22;4763;48.370;10.874;2022-12-18T05:39:25;-5.00;99.90
9450;DHT22;4763;48.370;10.874;2022-12-18T05:41:53;-5.00;99.90
9450;DHT22;4763;48.370;10.874;2022-12-18T05:44:20;-5.00;99.90
9450;DHT22;4763;48.370;10.874;2022-12-18T05:46:47;-5.00;99.90
9450;DHT22;4763;48.370;10.874;2022-12-18T05:49:14;-4.90;99.90
9450;DHT22;4763;48.370;10.874;2022-12-18T05:51:41;-5.00;99.90
9450;DHT22;4763;48.370;10.874;2022-12-18T05:54:07;-5.00;99.90
9450;DHT22;4763;48.370;10.874;2022-12-18T05:56:34;-5.00;99.90
9450;DHT22;4763;48.370;10.874;2022-12-18T05:59:02;-5.00;99.90
9450;DHT22;4763;48.370;10.874;2022-12-18T06:01:29;-5.00;99.90
9450;DHT22;4763;48.370;10.874;2022-12-18T06:03:56;-4.90;99.90
9450;DHT22;4763;48.370;10.874;2022-12-18T06:06:24;-5.00;99.90
9450;DHT22;4763;48.370;10.874;2022-12-18T06:08:52;-4.90;99.90
9450;DHT22;4763;48.370;10.874;2022-12-18T06:11:20;-4.90;99.90
9450;DHT22;4763;48.370;10.874;2022-12-18T06:13:50;-4.90;99.90
9450;DHT22;4763;48.370;10.874;2022-12-18T06:16:19;-5.00;99.90
9450;DHT22;4763;48.370;10.874;2022-12-18T06:18:45;-5.00;99.90
9450;DHT22;4763;48.370;10.874;2022-12-18T06:21:12;-5.00;99.90
9450;DHT22;4763;48.370;10.874;2022-12-18T06:23:39;-5.00;99.90
9450;DHT22;4763;48.370;10.874;2022-12-18T06:26:09;-5.00;99.90
9450;DHT22;4763;48.370;10.874;2022-12-18T06:28:36;-5.00;99.90
9450;DHT22;4763;48.370;10.874;2022-12-18T06:31:04;-5.00;99.90
9450;DHT22;4763;48.370;10.874;2022-12-18T06:33:33;-5.10;99.90
9450;DHT22;4763;48.370;10.874;2022-12-18T06:36:00;-5.00;99.90
9450;DHT22;4763;48.370;10.874;2022-12-18T06:38:27;-5.00;99.90
9450;DHT22;4763;48.370;10.874;2022-12-18T06:40:54;-5.00;99.90
9450;DHT22;4763;48.370;10.874;2022-12-18T06:43:21;-5.00;99.90
9450;DHT22;4763;48.370;10.874;2022-12-18T06:45:48;-5.00;99.90
9450;DHT22;4763;48.370;10.874;2022-12-18T06:48:18;-5.00;99.90
9450;DHT22;4763;48.370;10.874;2022-12-18T06:50:47;-5.10;99.90
9450;DHT22;4763;48.370;10.874;2022-12-18T06:53:13;-5.10;99.90
9450;DHT22;4763;48.370;10.874;2022-12-18T06:55:40;-5.00;99.90
9450;DHT22;4763;48.370;10.874;2022-12-18T06:58:07;-5.10;99.90
9450;DHT22;4763;48.370;10.874;2022-12-18T07:00:34;-5.10;99.90
9450;DHT22;4763;48.370;10.874;2022-12-18T07:03:01;-5.10;99.90
9450;DHT22;4763;48.370;10.874;2022-12-18T07:05:28;-5.10;99.90
9450;DHT22;4763;48.370;10.874;2022-12-18T07:07:56;-5.10;99.90
9450;DHT22;4763;48.370;10.874;2022-12-18T07:10:22;-5.10;99.90
9450;DHT22;4763;48.370;10.874;2022-12-18T07:12:49;-5.10;99.90
9450;DHT22;4763;48.370;10.874;2022-12-18T07:15:17;-5.10;99.90
9450;DHT22;4763;48.370;10.874;2022-12-18T07:17:44;-5.00;99.90
9450;DHT22;4763;48.370;10.874;2022-12-18T07:20:11;-5.00;99.90
9450;DHT22;4763;48.370;10.874;2022-12-18T07:22:38;-4.90;99.90
9450;DHT22;4763;48.370;10.874;2022-12-18T07:25:13;-5.00;99.90
9450;DHT22;4763;48.370;10.874;2022-12-18T07:27:41;-5.00;99.90
9450;DHT22;4763;48.370;10.874;2022-12-18T07:30:09;-4.90;99.90
9450;DHT22;4763;48.370;10.874;2022-12-18T07:32:36;-5.10;99.90
9450;DHT22;4763;48.370;10.874;2022-12-18T07:35:03;-5.00;99.90
9450;DHT22;4763;48.370;10.874;2022-12-18T07:37:30;-5.00;99.90
9450;DHT22;4763;48.370;10.874;2022-12-18T07:39:58;-5.00;99.90
9450;DHT22;4763;48.370;10.874;2022-12-18T07:42:26;-5.00;99.90
9450;DHT22;4763;48.370;10.874;2022-12-18T07:45:00;-4.90;99.90
9450;DHT22;4763;48.370;10.874;2022-12-18T07:47:27;-4.90;99.90
9450;DHT22;4763;48.370;10.874;2022-12-18T07:49:54;-4.90;99.90
9450;DHT22;4763;48.370;10.874;2022-12-18T07:52:22;-4.90;99.90
9450;DHT22;4763;48.370;10.874;2022-12-18T07:54:49;-4.90;99.90
9450;DHT22;4763;48.370;10.874;2022-12-18T07:57:16;-4.90;99.90
9450;DHT22;4763;48.370;10.874;2022-12-18T07:59:44;-4.90;99.90
9450;DHT22;4763;48.370;10.874;2022-12-18T08:02:11;-4.90;99.90
9450;DHT22;4763;48.370;10.874;2022-12-18T08:04:38;-4.90;99.90
9450;DHT22;4763;48.370;10.874;2022-12-18T08:07:05;-4.80;99.90
9450;DHT22;4763;48.370;10.874;2022-12-18T08:09:32;-4.80;99.90
9450;DHT22;4763;48.370;10.874;2022-12-18T08:11:59;-4.80;99.90
9450;DHT22;4763;48.370;10.874;2022-12-18T08:14:25;-4.80;99.90
9450;DHT22;4763;48.370;10.874;2022-12-18T08:16:54;-4.70;99.90
9450;DHT22;4763;48.370;10.874;2022-12-18T08:19:20;-4.60;99.90
9450;DHT22;4763;48.370;10.874;2022-12-18T08:21:47;-4.60;99.90
9450;DHT22;4763;48.370;10.874;2022-12-18T08:24:14;-4.60;99.90
9450;DHT22;4763;48.370;10.874;2022-12-18T08:26:41;-4.60;99.90
9450;DHT22;4763;48.370;10.874;2022-12-18T08:29:09;-4.50;99.90
9450;DHT22;4763;48.370;10.874;2022-12-18T08:31:36;-4.50;99.90
9450;DHT22;4763;48.370;10.874;2022-12-18T08:34:04;-4.50;99.90
9450;DHT22;4763;48.370;10.874;2022-12-18T08:36:31;-4.60;99.90
9450;DHT22;4763;48.370;10.874;2022-12-18T08:38:58;-4.60;99.90
9450;DHT22;4763;48.370;10.874;2022-12-18T08:41:25;-4.50;99.90
9450;DHT22;4763;48.370;10.874;2022-12-18T08:43:51;-4.50;99.90
9450;DHT22;4763;48.370;10.874;2022-12-18T08:46:38;-4.50;99.90
9450;DHT22;4763;48.370;10.874;2022-12-18T08:49:07;-4.40;99.90
9450;DHT22;4763;48.370;10.874;2022-12-18T08:51:34;-4.30;99.90
9450;DHT22;4763;48.370;10.874;2022-12-18T08:54:02;-4.30;99.90
9450;DHT22;4763;48.370;10.874;2022-12-18T08:56:30;-4.30;99.90
9450;DHT22;4763;48.370;10.874;2022-12-18T08:58:57;-4.30;99.90
9450;DHT22;4763;48.370;10.874;2022-12-18T09:01:24;-4.30;99.90
9450;DHT22;4763;48.370;10.874;2022-12-18T09:03:51;-4.30;99.90
9450;DHT22;4763;48.370;10.874;2022-12-18T09:06:21;-4.40;99.90
9450;DHT22;4763;48.370;10.874;2022-12-18T09:08:48;-4.40;99.90
9450;DHT22;4763;48.370;10.874;2022-12-18T09:11:21;-4.30;99.90
9450;DHT22;4763;48.370;10.874;2022-12-18T09:13:48;-4.30;99.90
9450;DHT22;4763;48.370;10.874;2022-12-18T09:16:16;-4.40;99.90
9450;DHT22;4763;48.370;10.874;2022-12-18T09:18:43;-4.40;99.90
9450;DHT22;4763;48.370;10.874;2022-12-18T09:21:11;-4.40;99.90
9450;DHT22;4763;48.370;10.874;2022-12-18T09:23:40;-4.40;99.90
9450;DHT22;4763;48.370;10.874;2022-12-18T09:26:08;-4.30;99.90
9450;DHT22;4763;48.370;10.874;2022-12-18T09:28:34;-4.30;99.90
9450;DHT22;4763;48.370;10.874;2022-12-18T09:31:05;-4.30;99.90
9450;DHT22;4763;48.370;10.874;2022-12-18T09:33:33;-4.20;99.90
9450;DHT22;4763;48.370;10.874;2022-12-18T09:36:01;-4.20;99.90
9450;DHT22;4763;48.370;10.874;2022-12-18T09:38:33;-4.20;99.90
9450;DHT22;4763;48.370;10.874;2022-12-18T09:41:05;-4.20;99.90
9450;DHT22;4763;48.370;10.874;2022-12-18T09:43:43;-4.10;99.90
9450;DHT22;4763;48.370;10.874;2022-12-18T09:46:20;-4.10;99.90
9450;DHT22;4763;48.370;10.874;2022-12-18T09:48:52;-4.20;99.90
9450;DHT22;4763;48.370;10.874;2022-12-18T09:51:27;-4.10;99.90
9450;DHT22;4763;48.370;10.874;2022-12-18T09:53:58;-4.00;99.90
9450;DHT22;4763;48.370;10.874;2022-12-18T09:56:29;-4.00;99.90
9450;DHT22;4763;48.370;10.874;2022-12-18T09:58:59;-3.90;99.90
9450;DHT22;4763;48.370;10.874;2022-12-18T10:01:27;-3.90;99.90
9450;DHT22;4763;48.370;10.874;2022-12-18T10:03:55;-4.00;99.90
9450;DHT22;4763;48.370;10.874;2022-12-18T10:06:27;-3.90;99.90
9450;DHT22;4763;48.370;10.874;2022-12-18T10:09:00;-3.90;99.90
9450;DHT22;4763;48.370;10.874;2022-12-18T10:11:37;-3.90;99.90
9450;DHT22;4763;48.370;10.874;2022-12-18T10:14:10;-3.80;99.90
9450;DHT22;4763;48.370;10.874;2022-12-18T10:16:51;-3.80;99.90
9450;DHT22;4763;48.370;10.874;2022-12-18T10:19:35;-3.80;99.90
9450;DHT22;4763;48.370;10.874;2022-12-18T10:22:14;-3.70;99.90
9450;DHT22;4763;48.370;10.874;2022-12-18T10:24:52;-3.70;99.90
9450;DHT22;4763;48.370;10.874;2022-12-18T10:27:24;-3.80;99.90
9450;DHT22;4763;48.370;10.874;2022-12-18T10:29:52;-3.80;99.90
9450;DHT22;4763;48.370;10.874;2022-12-18T10:32:21;-3.80;99.90
9450;DHT22;4763;48.370;10.874;2022-12-18T10:34:52;-3.60;99.90
9450;DHT22;4763;48.370;10.874;2022-12-18T10:37:22;-3.70;99.90
9450;DHT22;4763;48.370;10.874;2022-12-18T10:40:07;-3.60;99.90
9450;DHT22;4763;48.370;10.874;2022-12-18T10:42:36;-3.60;99.90
9450;DHT22;4763;48.370;10.874;2022-12-18T10:45:07;-3.70;99.90
9450;DHT22;4763;48.370;10.874;2022-12-18T10:47:35;-3.70;99.90
9450;DHT22;4763;48.370;10.874;2022-12-18T10:50:02;-3.50;99.90
9450;DHT22;4763;48.370;10.874;2022-12-18T10:52:29;-3.50;99.90
9450;DHT22;4763;48.370;10.874;2022-12-18T10:54:58;-3.50;99.90
9450;DHT22;4763;48.370;10.874;2022-12-18T10:57:33;-3.40;99.90
9450;DHT22;4763;48.370;10.874;2022-12-18T11:00:22;-3.30;99.90
9450;DHT22;4763;48.370;10.874;2022-12-18T11:02:52;-3.30;99.90
9450;DHT22;4763;48.370;10.874;2022-12-18T11:05:28;-3.20;99.90
9450;DHT22;4763;48.370;10.874;2022-12-18T11:07:56;-3.30;99.90
9450;DHT22;4763;48.370;10.874;2022-12-18T11:10:26;-3.20;99.90
9450;DHT22;4763;48.370;10.874;2022-12-18T11:12:54;-3.20;99.90
9450;DHT22;4763;48.370;10.874;2022-12-18T11:15:26;-3.20;99.90
9450;DHT22;4763;48.370;10.874;2022-12-18T11:17:55;-3.10;99.90
9450;DHT22;4763;48.370;10.874;2022-12-18T11:20:31;-3.20;99.90
9450;DHT22;4763;48.370;10.874;2022-12-18T11:23:00;-3.20;99.90
9450;DHT22;4763;48.370;10.874;2022-12-18T11:25:28;-3.10;99.90
9450;DHT22;4763;48.370;10.874;2022-12-18T11:27:58;-3.00;99.90
9450;DHT22;4763;48.370;10.874;2022-12-18T11:30:28;-3.10;99.90
9450;DHT22;4763;48.370;10.874;2022-12-18T11:33:03;-3.10;99.90
9450;DHT22;4763;48.370;10.874;2022-12-18T11:35:47;-3.20;99.90
9450;DHT22;4763;48.370;10.874;2022-12-18T11:38:21;-3.30;99.90
9450;DHT22;4763;48.370;10.874;2022-12-18T11:40:54;-3.10;99.90
9450;DHT22;4763;48.370;10.874;2022-12-18T11:43:27;-3.10;99.90
9450;DHT22;4763;48.370;10.874;2022-12-18T11:45:59;-3.20;99.90
9450;DHT22;4763;48.370;10.874;2022-12-18T11:48:32;-3.20;99.90
9450;DHT22;4763;48.370;10.874;2022-12-18T11:51:01;-3.10;99.90
9450;DHT22;4763;48.370;10.874;2022-12-18T11:53:30;-3.20;99.90
9450;DHT22;4763;48.370;10.874;2022-12-18T11:56:06;-3.20;99.90
9450;DHT22;4763;48.370;10.874;2022-12-18T11:58:46;-3.10;99.90
9450;DHT22;4763;48.370;10.874;2022-12-18T12:01:25;-3.10;99.90
9450;DHT22;4763;48.370;10.874;2022-12-18T12:04:12;-3.00;99.90
9450;DHT22;4763;48.370;10.874;2022-12-18T12:06:50;-2.90;99.90
9450;DHT22;4763;48.370;10.874;2022-12-18T12:09:24;-2.90;99.90
9450;DHT22;4763;48.370;10.874;2022-12-18T12:12:07;-2.90;99.90
9450;DHT22;4763;48.370;10.874;2022-12-18T12:14:47;-2.90;99.90
9450;DHT22;4763;48.370;10.874;2022-12-18T12:17:26;-2.90;99.90
9450;DHT22;4763;48.370;10.874;2022-12-18T12:20:08;-2.90;99.90
9450;DHT22;4763;48.370;10.874;2022-12-18T12:22:47;-2.90;99.90
9450;DHT22;4763;48.370;10.874;2022-12-18T12:25:28;-2.90;99.90
9450;DHT22;4763;48.370;10.874;2022-12-18T12:28:09;-3.00;99.90
9450;DHT22;4763;48.370;10.874;2022-12-18T12:30:54;-3.00;99.90
9450;DHT22;4763;48.370;10.874;2022-12-18T12:33:34;-2.90;99.90
9450;DHT22;4763;48.370;10.874;2022-12-18T12:36:17;-2.90;99.90
9450;DHT22;4763;48.370;10.874;2022-12-18T12:38:56;-2.90;99.90
9450;DHT22;4763;48.370;10.874;2022-12-18T12:41:26;-2.80;99.90
9450;DHT22;4763;48.370;10.874;2022-12-18T12:44:15;-2.80;99.90
9450;DHT22;4763;48.370;10.874;2022-12-18T12:46:46;-2.80;99.90
9450;DHT22;4763;48.370;10.874;2022-12-18T12:49:20;-2.90;99.90
9450;DHT22;4763;48.370;10.874;2022-12-18T12:51:53;-2.90;99.90
9450;DHT22;4763;48.370;10.874;2022-12-18T12:54:26;-3.20;99.90
9450;DHT22;4763;48.370;10.874;2022-12-18T12:56:58;-3.20;99.90
9450;DHT22;4763;48.370;10.874;2022-12-18T12:59:34;-3.20;99.90
9450;DHT22;4763;48.370;10.874;2022-12-18T13:02:10;-3.20;99.90
9450;DHT22;4763;48.370;10.874;2022-12-18T13:04:52;-3.30;99.90
9450;DHT22;4763;48.370;10.874;2022-12-18T13:07:34;-3.20;99.90
9450;DHT22;4763;48.370;10.874;2022-12-18T13:10:31;-3.10;99.90
9450;DHT22;4763;48.370;10.874;2022-12-18T13:13:00;-3.30;99.90
9450;DHT22;4763;48.370;10.874;2022-12-18T13:15:31;-3.40;99.90
9450;DHT22;4763;48.370;10.874;2022-12-18T13:18:18;-3.30;99.90
9450;DHT22;4763;48.370;10.874;2022-12-18T13:20:49;-3.40;99.90
9450;DHT22;4763;48.370;10.874;2022-12-18T13:23:30;-3.40;99.90
9450;DHT22;4763;48.370;10.874;2022-12-18T13:26:33;-3.40;99.90
9450;DHT22;4763;48.370;10.874;2022-12-18T13:29:12;-3.50;99.90
9450;DHT22;4763;48.370;10.874;2022-12-18T13:32:10;-3.60;99.90
9450;DHT22;4763;48.370;10.874;2022-12-18T13:38:00;-3.70;99.90
9450;DHT22;4763;48.370;10.874;2022-12-18T13:41:01;-3.60;99.90
9450;DHT22;4763;48.370;10.874;2022-12-18T13:43:39;-3.70;99.90
9450;DHT22;4763;48.370;10.874;2022-12-18T13:46:24;-3.70;99.90
9450;DHT22;4763;48.370;10.874;2022-12-18T13:48:57;-3.70;99.90
9450;DHT22;4763;48.370;10.874;2022-12-18T13:51:25;-3.70;99.90
9450;DHT22;4763;48.370;10.874;2022-12-18T13:53:56;-3.70;99.90
9450;DHT22;4763;48.370;10.874;2022-12-18T13:56:25;-3.70;99.90
9450;DHT22;4763;48.370;10.874;2022-12-18T13:59:17;-3.80;99.90
9450;DHT22;4763;48.370;10.874;2022-12-18T14:01:47;-3.80;99.90
9450;DHT22;4763;48.370;10.874;2022-12-18T14:04:25;-3.80;99.90
9450;DHT22;4763;48.370;10.874;2022-12-18T14:06:56;-3.80;99.90
9450;DHT22;4763;48.370;10.874;2022-12-18T14:09:30;-3.80;99.90
9450;DHT22;4763;48.370;10.874;2022-12-18T14:12:00;-3.90;99.90
9450;DHT22;4763;48.370;10.874;2022-12-18T14:14:46;-3.80;99.90
9450;DHT22;4763;48.370;10.874;2022-12-18T14:17:14;-3.80;99.90
9450;DHT22;4763;48.370;10.874;2022-12-18T14:19:45;-3.80;99.90
9450;DHT22;4763;48.370;10.874;2022-12-18T14:22:17;-3.90;99.90
9450;DHT22;4763;48.370;10.874;2022-12-18T14:24:47;-3.90;99.90
9450;DHT22;4763;48.370;10.874;2022-12-18T14:27:21;-3.90;99.90
9450;DHT22;4763;48.370;10.874;2022-12-18T14:29:49;-3.90;99.90
9450;DHT22;4763;48.370;10.874;2022-12-18T14:32:18;-3.80;99.90
9450;DHT22;4763;48.370;10.874;2022-12-18T14:34:46;-3.80;99.90
9450;DHT22;4763;48.370;10.874;2022-12-18T14:37:14;-4.00;99.90
9450;DHT22;4763;48.370;10.874;2022-12-18T14:39:59;-3.90;99.90
9450;DHT22;4763;48.370;10.874;2022-12-18T14:42:28;-4.00;99.90
9450;DHT22;4763;48.370;10.874;2022-12-18T14:45:35;-4.00;99.90
9450;DHT22;4763;48.370;10.874;2022-12-18T14:48:06;-4.00;99.90
9450;DHT22;4763;48.370;10.874;2022-12-18T14:50:33;-4.00;99.90
9450;DHT22;4763;48.370;10.874;2022-12-18T14:53:00;-4.10;99.90
9450;DHT22;4763;48.370;10.874;2022-12-18T14:55:28;-4.10;99.90
9450;DHT22;4763;48.370;10.874;2022-12-18T14:57:56;-4.10;99.90
9450;DHT22;4763;48.370;10.874;2022-12-18T15:00:25;-4.20;99.90
9450;DHT22;4763;48.370;10.874;2022-12-18T15:02:56;-4.20;99.90
9450;DHT22;4763;48.370;10.874;2022-12-18T15:05:27;-4.10;99.90
9450;DHT22;4763;48.370;10.874;2022-12-18T15:07:57;-4.10;99.90
9450;DHT22;4763;48.370;10.874;2022-12-18T15:10:25;-4.20;99.90
9450;DHT22;4763;48.370;10.874;2022-12-18T15:13:09;-4.30;99.90
9450;DHT22;4763;48.370;10.874;2022-12-18T15:15:47;-4.40;99.90
9450;DHT22;4763;48.370;10.874;2022-12-18T15:18:27;-4.40;99.90
9450;DHT22;4763;48.370;10.874;2022-12-18T15:20:58;-4.50;99.90
9450;DHT22;4763;48.370;10.874;2022-12-18T15:23:28;-4.40;99.90
9450;DHT22;4763;48.370;10.874;2022-12-18T15:25:57;-4.50;99.90
9450;DHT22;4763;48.370;10.874;2022-12-18T15:28:28;-4.70;99.90
9450;DHT22;4763;48.370;10.874;2022-12-18T15:31:02;-4.60;99.90
9450;DHT22;4763;48.370;10.874;2022-12-18T15:33:31;-4.70;99.90
9450;DHT22;4763;48.370;10.874;2022-12-18T15:36:03;-4.60;99.90
9450;DHT22;4763;48.370;10.874;2022-12-18T15:38:31;-4.70;99.90
9450;DHT22;4763;48.370;10.874;2022-12-18T15:41:05;-4.60;99.90
9450;DHT22;4763;48.370;10.874;2022-12-18T15:43:37;-4.60;99.90
9450;DHT22;4763;48.370;10.874;2022-12-18T15:46:05;-4.60;99.90
9450;DHT22;4763;48.370;10.874;2022-12-18T15:48:34;-4.60;99.90
9450;DHT22;4763;48.370;10.874;2022-12-18T15:51:02;-4.60;99.90
9450;DHT22;4763;48.370;10.874;2022-12-18T15:53:31;-4.70;99.90
9450;DHT22;4763;48.370;10.874;2022-12-18T15:56:00;-4.70;99.90
9450;DHT22;4763;48.370;10.874;2022-12-18T15:58:46;-4.70;99.90
9450;DHT22;4763;48.370;10.874;2022-12-18T16:01:16;-4.70;99.90
9450;DHT22;4763;48.370;10.874;2022-12-18T16:03:43;-4.70;99.90
9450;DHT22;4763;48.370;10.874;2022-12-18T16:06:16;-4.60;99.90
9450;DHT22;4763;48.370;10.874;2022-12-18T16:08:42;-4.60;99.90
9450;DHT22;4763;48.370;10.874;2022-12-18T16:11:20;-4.60;99.90
9450;DHT22;4763;48.370;10.874;2022-12-18T16:14:12;-4.60;99.90